Time;durP1;ratioP1;P1;durP2;ratioP2;P2;SDS_P1;SDS_P2;PMS_P1;PMS_P2;Temp;Humidity;BMP_temperature;BMP_pressure;BME280_temperature;BME280_humidity;BME280_pressure;Samples;Min_cycle;Max_cycle;Signal;HPM_P1;HPM_P2
2023/06/02 00:01:07;;;;;;;;;;;;;;;;;;5071593;28;19925;-79
2023/06/02 00:03:34;;;;;;;;;;;;;;;;;;5072765;28;19929;-82
2023/06/02 00:06:03;;;;;;;;;;;;;;;;;;5073733;28;19924;-80
2023/06/02 00:08:32;;;;;;;;;;;;;;;;;;5073020;28;20231;-82
2023/06/02 00:10:59;;;;;;;;;;;;;;;;;;5073252;28;19932;-81
2023/06/02 00:13:26;;;;;;;;;;;;;;;;;;5073700;28;19970;-81
2023/06/02 00:15:53;;;;;;;;;;;;;;;;;;5066767;28;19947;-84
2023/06/02 00:18:22;;;;;;;;;;;;;;;;;;5073062;28;19936;-81
2023/06/02 00:20:49;;;;;;;;;;;;;;;;;;5055083;28;19933;-81
2023/06/02 00:23:16;;;;;;;;;;;;;;;;;;5073893;28;19929;-80
2023/06/02 00:25:43;;;;;;;;;;;;;;;;;;5074127;28;20349;-80
2023/06/02 00:28:10;;;;;;;;;;;;;;;;;;5072797;28;19925;-82
2023/06/02 00:30:38;;;;;;;;;;;;;;;;;;5095080;28;19936;-80
2023/06/02 00:33:05;;;;;;;;;;;;;;;;;;5077799;28;19924;-80
2023/06/02 00:35:32;;;;;;;;;;;;;;;;;;5076443;28;19986;-80
2023/06/02 00:38:04;;;;;;;;;;;;;;;;;;5073214;28;19932;-80
2023/06/02 00:40:31;;;;;;;;;;;;;;;;;;5077903;28;19924;-79
2023/06/02 00:42:58;;;;;;;;;;;;;;;;;;5075124;28;19975;-79
2023/06/02 00:45:25;;;;;;;;;;;;;;;;;;5074042;28;19925;-79
2023/06/02 00:47:52;;;;;;;;;;;;;;;;;;5072586;28;19964;-79
2023/06/02 00:50:19;;;;;;;;;;;;;;;;;;5071648;28;19974;-79
2023/06/02 00:52:46;;;;;;;;;;;;;;;;;;5068714;28;20012;-79
2023/06/02 00:55:13;;;;;;;;;;;;;;;;;;5077076;28;19930;-79
2023/06/02 00:57:40;;;;;;;;;;;;;;;;;;5091753;28;19970;-80
2023/06/02 01:00:09;;;;;;;;;;;;;;;;;;5076073;28;19925;-79
2023/06/02 01:02:36;;;;;;;;;;;;;;;;;;5089656;28;19928;-78
2023/06/02 01:05:03;;;;;;;;;;;;;;;;;;5075123;28;20011;-78
2023/06/02 01:07:30;;;;;;;;;;;;;;;;;;5076704;28;19928;-79
2023/06/02 01:09:57;;;;;;;;;;;;;;;;;;5074808;28;19924;-79
2023/06/02 01:12:24;;;;;;;;;;;;;;;;;;5075996;28;20019;-78
2023/06/02 01:14:51;;;;;;;;;;;;;;;;;;5074350;28;19924;-79
2023/06/02 01:17:18;;;;;;;;;;;;;;;;;;5075513;28;20450;-79
2023/06/02 01:19:47;;;;;;;;;;;;;;;;;;5083299;28;20379;-80
2023/06/02 01:22:13;;;;;;;;;;;;;;;;;;5080106;28;19931;-79
2023/06/02 01:24:40;;;;;;;;;;;;;;;;;;5071264;28;19967;-81
2023/06/02 01:27:07;;;;;;;;;;;;;;;;;;5075574;28;20003;-79
2023/06/02 01:29:35;;;;;;;;;;;;;;;;;;5087021;28;20007;-80
2023/06/02 01:32:02;;;;;;;;;;;;;;;;;;5090446;28;19931;-80
2023/06/02 01:34:29;;;;;;;;;;;;;;;;;;5074417;28;19928;-79
2023/06/02 01:36:56;;;;;;;;;;;;;;;;;;5074199;28;19971;-80
2023/06/02 01:39:23;;;;;;;;;;;;;;;;;;5076806;28;19935;-81
2023/06/02 01:41:50;;;;;;;;;;;;;;;;;;5072643;28;20019;-79
2023/06/02 01:44:17;;;;;;;;;;;;;;;;;;5086157;28;20019;-80
2023/06/02 01:46:44;;;;;;;;;;;;;;;;;;5074154;28;19930;-80
2023/06/02 01:49:11;;;;;;;;;;;;;;;;;;5078911;28;19924;-81
2023/06/02 01:51:38;;;;;;;;;;;;;;;;;;5095037;28;19924;-81
2023/06/02 01:54:05;;;;;;;;;;;;;;;;;;5093398;28;20027;-79
2023/06/02 01:56:32;;;;;;;;;;;;;;;;;;5092814;28;20007;-79
2023/06/02 01:59:00;;;;;;;;;;;;;;;;;;5086755;28;19928;-78
2023/06/02 02:01:28;;;;;;;;;;;;;;;;;;5071454;28;19925;-79
2023/06/02 02:03:55;;;;;;;;;;;;;;;;;;5075297;28;19924;-79
2023/06/02 02:06:24;;;;;;;;;;;;;;;;;;5073251;28;20018;-80
2023/06/02 02:08:51;;;;;;;;;;;;;;;;;;5086407;28;19924;-82
2023/06/02 02:11:18;;;;;;;;;;;;;;;;;;5079014;28;19933;-81
2023/06/02 02:13:45;;;;;;;;;;;;;;;;;;5074225;28;19925;-82
2023/06/02 02:16:12;;;;;;;;;;;;;;;;;;5076027;28;19924;-80
2023/06/02 02:18:40;;;;;;;;;;;;;;;;;;5087194;28;19931;-79
2023/06/02 02:21:07;;;;;;;;;;;;;;;;;;5087073;28;20407;-80
2023/06/02 02:23:34;;;;;;;;;;;;;;;;;;5064990;28;20023;-79
2023/06/02 02:26:01;;;;;;;;;;;;;;;;;;5090320;28;19994;-80
2023/06/02 02:28:28;;;;;;;;;;;;;;;;;;5092944;28;19924;-80
2023/06/02 02:30:55;;;;;;;;;;;;;;;;;;5091574;28;20098;-76
2023/06/02 02:33:22;;;;;;;;;;;;;;;;;;5081993;28;20430;-78
2023/06/02 02:35:51;;;;;;;;;;;;;;;;;;5083037;28;20454;-77
2023/06/02 02:38:18;;;;;;;;;;;;;;;;;;5075826;28;19924;-77
2023/06/02 02:40:45;;;;;;;;;;;;;;;;;;5077725;28;20027;-78
2023/06/02 02:43:12;;;;;;;;;;;;;;;;;;5091640;28;19931;-80
2023/06/02 02:45:39;;;;;;;;;;;;;;;;;;5075291;28;19931;-79
2023/06/02 02:48:07;;;;;;;;;;;;;;;;;;5073917;28;19959;-81
2023/06/02 02:50:34;;;;;;;;;;;;;;;;;;5072667;28;19925;-80
2023/06/02 02:53:02;;;;;;;;;;;;;;;;;;5074021;28;19924;-81
2023/06/02 02:55:32;;;;;;;;;;;;;;;;;;5073993;28;20019;-81
2023/06/02 02:57:59;;;;;;;;;;;;;;;;;;5074366;28;20333;-83
2023/06/02 03:00:27;;;;;;;;;;;;;;;;;;5073249;28;20014;-82
2023/06/02 03:02:54;;;;;;;;;;;;;;;;;;5072059;28;19970;-82
2023/06/02 03:05:21;;;;;;;;;;;;;;;;;;5072502;28;19924;-81
2023/06/02 03:07:49;;;;;;;;;;;;;;;;;;5068603;28;20019;-82
2023/06/02 03:10:16;;;;;;;;;;;;;;;;;;5074237;28;20284;-82
2023/06/02 03:12:43;;;;;;;;;;;;;;;;;;5074427;28;19963;-81
2023/06/02 03:15:10;;;;;;;;;;;;;;;;;;5072964;28;20371;-81
2023/06/02 03:17:38;;;;;;;;;;;;;;;;;;5074537;28;20020;-80
2023/06/02 03:20:07;;;;;;;;;;;;;;;;;;5074727;28;20391;-80
2023/06/02 03:22:34;;;;;;;;;;;;;;;;;;5072896;28;19925;-80
2023/06/02 03:25:01;;;;;;;;;;;;;;;;;;5072374;28;20009;-80
2023/06/02 03:27:29;;;;;;;;;;;;;;;;;;5073364;28;20448;-79
2023/06/02 03:29:56;;;;;;;;;;;;;;;;;;5071656;28;19924;-81
2023/06/02 03:32:23;;;;;;;;;;;;;;;;;;5053276;28;19925;-80
2023/06/02 03:34:50;;;;;;;;;;;;;;;;;;5071447;28;19928;-80
2023/06/02 03:37:26;;;;;;;;;;;;;;;;;;5081032;28;19924;-80
2023/06/02 03:39:53;;;;;;;;;;;;;;;;;;5071703;28;19951;-80
2023/06/02 03:42:20;;;;;;;;;;;;;;;;;;5079307;28;20362;-80
2023/06/02 03:44:47;;;;;;;;;;;;;;;;;;5091608;28;19928;-80
2023/06/02 03:47:15;;;;;;;;;;;;;;;;;;5072663;28;20362;-81
2023/06/02 03:49:42;;;;;;;;;;;;;;;;;;5080670;28;20018;-80
2023/06/02 03:52:09;;;;;;;;;;;;;;;;;;5071002;28;19932;-80
2023/06/02 03:54:36;;;;;;;;;;;;;;;;;;5059704;28;19928;-80
2023/06/02 03:57:03;;;;;;;;;;;;;;;;;;5091670;28;19970;-80
2023/06/02 03:59:31;;;;;;;;;;;;;;;;;;5092378;28;20023;-80
2023/06/02 04:01:58;;;;;;;;;;;;;;;;;;5071804;28;19959;-79
2023/06/02 04:04:25;;;;;;;;;;;;;;;;;;5072536;28;19960;-81
2023/06/02 04:06:53;;;;;;;;;;;;;;;;;;5089679;28;19955;-81
2023/06/02 04:09:20;;;;;;;;;;;;;;;;;;5071474;28;20413;-79
2023/06/02 04:11:47;;;;;;;;;;;;;;;;;;5095727;28;19924;-80
2023/06/02 04:14:14;;;;;;;;;;;;;;;;;;5086366;28;20280;-81
2023/06/02 04:16:41;;;;;;;;;;;;;;;;;;5075071;28;20019;-81
2023/06/02 04:19:08;;;;;;;;;;;;;;;;;;5062740;28;20014;-80
2023/06/02 04:21:35;;;;;;;;;;;;;;;;;;5084799;28;20290;-79
2023/06/02 04:24:02;;;;;;;;;;;;;;;;;;5080993;28;20339;-80
2023/06/02 04:26:29;;;;;;;;;;;;;;;;;;5079505;28;20019;-79
2023/06/02 04:28:56;;;;;;;;;;;;;;;;;;5082896;28;19924;-79
2023/06/02 04:31:28;;;;;;;;;;;;;;;;;;5075631;28;19991;-81
2023/06/02 04:33:55;;;;;;;;;;;;;;;;;;5080502;28;19924;-81
2023/06/02 04:36:22;;;;;;;;;;;;;;;;;;5076112;28;19925;-81
2023/06/02 04:38:49;;;;;;;;;;;;;;;;;;5075981;28;20027;-80
2023/06/02 04:41:16;;;;;;;;;;;;;;;;;;5076055;28;20023;-82
2023/06/02 04:43:43;;;;;;;;;;;;;;;;;;5064888;28;19925;-82
2023/06/02 04:46:10;;;;;;;;;;;;;;;;;;5057553;28;20011;-82
2023/06/02 04:48:37;;;;;;;;;;;;;;;;;;5063377;28;19924;-82
2023/06/02 04:51:05;;;;;;;;;;;;;;;;;;5076569;28;19924;-82
2023/06/02 04:53:32;;;;;;;;;;;;;;;;;;5076354;28;20387;-81
2023/06/02 04:55:59;;;;;;;;;;;;;;;;;;5076840;28;20066;-81
2023/06/02 04:58:26;;;;;;;;;;;;;;;;;;5076609;28;19925;-81
2023/06/02 05:00:53;;;;;;;;;;;;;;;;;;5075947;28;19936;-82
2023/06/02 05:03:20;;;;;;;;;;;;;;;;;;5074313;28;20003;-83
2023/06/02 05:05:47;;;;;;;;;;;;;;;;;;5075315;28;19924;-81
2023/06/02 05:08:14;;;;;;;;;;;;;;;;;;5076494;28;19924;-80
2023/06/02 05:10:41;;;;;;;;;;;;;;;;;;5073972;28;20006;-76
2023/06/02 05:13:08;;;;;;;;;;;;;;;;;;5075572;28;19966;-80
2023/06/02 05:15:36;;;;;;;;;;;;;;;;;;5076912;28;19943;-79
2023/06/02 05:18:03;;;;;;;;;;;;;;;;;;5072688;28;19924;-82
2023/06/02 05:20:30;;;;;;;;;;;;;;;;;;5075500;28;20015;-84
2023/06/02 05:22:57;;;;;;;;;;;;;;;;;;5077919;28;20006;-81
2023/06/02 05:25:24;;;;;;;;;;;;;;;;;;5073467;28;20004;-82
2023/06/02 05:27:51;;;;;;;;;;;;;;;;;;5082605;28;19970;-80
2023/06/02 05:30:18;;;;;;;;;;;;;;;;;;5075637;28;19971;-81
2023/06/02 05:32:45;;;;;;;;;;;;;;;;;;5077565;28;20023;-81
2023/06/02 05:35:12;;;;;;;;;;;;;;;;;;5082158;28;20011;-80
2023/06/02 05:37:39;;;;;;;;;;;;;;;;;;5071934;28;20044;-79
2023/06/02 05:40:06;;;;;;;;;;;;;;;;;;5073569;28;20450;-82
2023/06/02 05:42:33;;;;;;;;;;;;;;;;;;5074752;28;19925;-83
2023/06/02 05:45:02;;;;;;;;;;;;;;;;;;5075531;28;19928;-82
2023/06/02 05:47:30;;;;;;;;;;;;;;;;;;5073651;28;20414;-83
2023/06/02 05:49:57;;;;;;;;;;;;;;;;;;5074121;28;20050;-83
2023/06/02 05:52:24;;;;;;;;;;;;;;;;;;5071854;28;19925;-83
2023/06/02 05:54:51;;;;;;;;;;;;;;;;;;5071927;28;20423;-83
2023/06/02 05:57:18;;;;;;;;;;;;;;;;;;5075026;28;20018;-83
2023/06/02 05:59:45;;;;;;;;;;;;;;;;;;5074964;28;19974;-83
2023/06/02 06:02:12;;;;;;;;;;;;;;;;;;5072067;28;19924;-83
2023/06/02 06:04:40;;;;;;;;;;;;;;;;;;5070325;28;20013;-82
2023/06/02 06:07:07;;;;;;;;;;;;;;;;;;5074094;28;20441;-83
2023/06/02 06:09:33;;;;;;;;;;;;;;;;;;5079406;28;20344;-84
2023/06/02 06:12:06;;;;;;;;;;;;;;;;;;5076722;28;19960;-83
2023/06/02 06:14:34;;;;;;;;;;;;;;;;;;5070797;28;19952;-81
2023/06/02 06:17:01;;;;;;;;;;;;;;;;;;5073480;28;20254;-82
2023/06/02 06:19:28;;;;;;;;;;;;;;;;;;5074718;28;19928;-81
2023/06/02 06:21:55;;;;;;;;;;;;;;;;;;5065211;28;20011;-82
2023/06/02 06:24:22;;;;;;;;;;;;;;;;;;5066881;28;20044;-79
2023/06/02 06:26:49;;;;;;;;;;;;;;;;;;5080657;28;19928;-83
2023/06/02 06:29:16;;;;;;;;;;;;;;;;;;5082995;28;19959;-83
2023/06/02 06:31:43;;;;;;;;;;;;;;;;;;5070243;28;19925;-76
2023/06/02 06:34:10;;;;;;;;;;;;;;;;;;5072075;28;20016;-78
2023/06/02 06:36:37;;;;;;;;;;;;;;;;;;5072560;28;19925;-77
2023/06/02 06:39:04;;;;;;;;;;;;;;;;;;5068839;28;20019;-78
2023/06/02 06:41:31;;;;;;;;;;;;;;;;;;5066928;28;19936;-77
2023/06/02 06:43:58;;;;;;;;;;;;;;;;;;5071896;28;20023;-77
2023/06/02 06:46:25;;;;;;;;;;;;;;;;;;5071755;28;20022;-78
2023/06/02 06:48:52;;;;;;;;;;;;;;;;;;5072909;28;20016;-78
2023/06/02 06:51:19;;;;;;;;;;;;;;;;;;5079996;28;19948;-78
2023/06/02 06:53:46;;;;;;;;;;;;;;;;;;5072117;28;20008;-78
2023/06/02 06:56:13;;;;;;;;;;;;;;;;;;5072288;28;19977;-77
2023/06/02 06:58:40;;;;;;;;;;;;;;;;;;5071150;28;19924;-78
2023/06/02 07:01:07;;;;;;;;;;;;;;;;;;5065330;28;20299;-77
2023/06/02 07:03:34;;;;;;;;;;;;;;;;;;5073009;28;19924;-78
2023/06/02 07:06:01;;;;;;;;;;;;;;;;;;5073371;28;19977;-78
2023/06/02 07:08:29;;;;;;;;;;;;;;;;;;5070645;28;19928;-77
2023/06/02 07:10:56;;;;;;;;;;;;;;;;;;5072125;28;19924;-79
2023/06/02 07:13:23;;;;;;;;;;;;;;;;;;5073372;28;19970;-77
2023/06/02 07:15:50;;;;;;;;;;;;;;;;;;5070954;28;19960;-77
2023/06/02 07:18:17;;;;;;;;;;;;;;;;;;5070852;28;20369;-77
2023/06/02 07:20:44;;;;;;;;;;;;;;;;;;5070760;28;20011;-76
2023/06/02 07:23:11;;;;;;;;;;;;;;;;;;5070025;28;20023;-77
2023/06/02 07:25:38;;;;;;;;;;;;;;;;;;5069649;28;20006;-77
2023/06/02 07:28:05;;;;;;;;;;;;;;;;;;5070901;28;20391;-75
2023/06/02 07:30:32;;;;;;;;;;;;;;;;;;5070325;28;20318;-76
2023/06/02 07:32:59;;;;;;;;;;;;;;;;;;5069705;28;19952;-76
2023/06/02 07:35:26;;;;;;;;;;;;;;;;;;5069281;28;19925;-77
2023/06/02 07:37:53;;;;;;;;;;;;;;;;;;5071723;28;20020;-79
2023/06/02 07:40:20;;;;;;;;;;;;;;;;;;5072288;28;20024;-78
2023/06/02 07:42:47;;;;;;;;;;;;;;;;;;5066345;28;19924;-79
2023/06/02 07:45:14;;;;;;;;;;;;;;;;;;5069512;28;19925;-78
2023/06/02 07:47:41;;;;;;;;;;;;;;;;;;5072991;28;19928;-80
2023/06/02 07:50:09;;;;;;;;;;;;;;;;;;5070310;28;20007;-80
2023/06/02 07:52:36;;;;;;;;;;;;;;;;;;5066730;28;20015;-79
2023/06/02 07:55:03;;;;;;;;;;;;;;;;;;5057954;28;19956;-79
2023/06/02 07:57:30;;;;;;;;;;;;;;;;;;5069905;28;19925;-81
2023/06/02 07:59:56;;;;;;;;;;;;;;;;;;5080925;28;20282;-78
2023/06/02 08:02:23;;;;;;;;;;;;;;;;;;5073656;28;20321;-81
2023/06/02 08:04:50;;;;;;;;;;;;;;;;;;5072210;28;20328;-79
2023/06/02 08:07:17;;;;;;;;;;;;;;;;;;5077705;28;19924;-81
2023/06/02 08:09:44;;;;;;;;;;;;;;;;;;5078355;28;19970;-81
2023/06/02 08:12:11;;;;;;;;;;;;;;;;;;5080267;28;20055;-66
2023/06/02 08:14:38;;;;;;;;;;;;;;;;;;5073939;28;19968;-83
2023/06/02 08:17:06;;;;;;;;;;;;;;;;;;5081886;28;19931;-79
2023/06/02 08:19:35;;;;;;;;;;;;;;;;;;5067544;28;20399;-80
2023/06/02 08:22:02;;;;;;;;;;;;;;;;;;5071450;28;19925;-79
2023/06/02 08:24:29;;;;;;;;;;;;;;;;;;5072724;28;19931;-79
2023/06/02 08:26:56;;;;;;;;;;;;;;;;;;5072435;28;19990;-80
2023/06/02 08:29:23;;;;;;;;;;;;;;;;;;5071252;28;20055;-82
2023/06/02 08:31:50;;;;;;;;;;;;;;;;;;5072794;28;19986;-81
2023/06/02 08:34:20;;;;;;;;;;;;;;;;;;5064147;28;20023;-81
2023/06/02 08:36:49;;;;;;;;;;;;;;;;;;5068867;28;19967;-80
2023/06/02 08:39:16;;;;;;;;;;;;;;;;;;5060355;28;19925;-80
2023/06/02 08:41:43;;;;;;;;;;;;;;;;;;5072290;28;19968;-80
2023/06/02 08:44:12;;;;;;;;;;;;;;;;;;5062819;28;19968;-78
2023/06/02 08:46:39;;;;;;;;;;;;;;;;;;5070911;28;19976;-77
2023/06/02 08:49:06;;;;;;;;;;;;;;;;;;5076581;28;19975;-79
2023/06/02 08:51:33;;;;;;;;;;;;;;;;;;5075162;28;19999;-78
2023/06/02 08:54:00;;;;;;;;;;;;;;;;;;5072131;28;20011;-77
2023/06/02 08:56:27;;;;;;;;;;;;;;;;;;5072518;28;19995;-79
2023/06/02 08:58:54;;;;;;;;;;;;;;;;;;5070939;28;20007;-80
2023/06/02 09:01:21;;;;;;;;;;;;;;;;;;5075952;28;20035;-82
2023/06/02 09:03:48;;;;;;;;;;;;;;;;;;5076746;28;19974;-81
2023/06/02 09:06:15;;;;;;;;;;;;;;;;;;5070248;28;19978;-80
2023/06/02 09:08:42;;;;;;;;;;;;;;;;;;5072009;28;20011;-81
2023/06/02 09:11:09;;;;;;;;;;;;;;;;;;5073474;28;19942;-83
2023/06/02 09:13:40;;;;;;;;;;;;;;;;;;5065490;28;19967;-82
2023/06/02 09:16:07;;;;;;;;;;;;;;;;;;5072133;28;20015;-77
2023/06/02 09:18:34;;;;;;;;;;;;;;;;;;5071120;28;20020;-82
2023/06/02 09:21:01;;;;;;;;;;;;;;;;;;5072212;28;19924;-80
2023/06/02 09:23:28;;;;;;;;;;;;;;;;;;5074677;28;19963;-82
2023/06/02 09:25:55;;;;;;;;;;;;;;;;;;5068145;28;19963;-81
2023/06/02 09:28:22;;;;;;;;;;;;;;;;;;5071580;28;19929;-81
2023/06/02 09:33:36;;;;;;;;;;;;;;;;;;5071237;28;19989;-78
2023/06/02 09:36:04;;;;;;;;;;;;;;;;;;5082060;28;20007;-81
2023/06/02 09:38:31;;;;;;;;;;;;;;;;;;5082987;28;19931;-83
2023/06/02 09:40:58;;;;;;;;;;;;;;;;;;5074750;28;19935;-78
2023/06/02 09:43:25;;;;;;;;;;;;;;;;;;5072580;28;20015;-79
2023/06/02 09:45:52;;;;;;;;;;;;;;;;;;5073877;28;19963;-79
2023/06/02 09:48:20;;;;;;;;;;;;;;;;;;5075230;28;20400;-80
2023/06/02 09:50:47;;;;;;;;;;;;;;;;;;5072364;28;19970;-86
2023/06/02 09:53:15;;;;;;;;;;;;;;;;;;5077624;28;19975;-82
2023/06/02 09:55:42;;;;;;;;;;;;;;;;;;5075166;28;19932;-83
2023/06/02 09:58:09;;;;;;;;;;;;;;;;;;5073479;28;20046;-83
2023/06/02 10:00:36;;;;;;;;;;;;;;;;;;5075553;28;20019;-82
2023/06/02 10:03:03;;;;;;;;;;;;;;;;;;5071824;28;19936;-82
2023/06/02 10:05:30;;;;;;;;;;;;;;;;;;5073225;28;20011;-82
2023/06/02 10:07:57;;;;;;;;;;;;;;;;;;5074072;28;19994;-82
2023/06/02 10:10:24;;;;;;;;;;;;;;;;;;5070920;28;20272;-82
2023/06/02 10:12:51;;;;;;;;;;;;;;;;;;5073234;28;19950;-82
2023/06/02 10:15:20;;;;;;;;;;;;;;;;;;5071099;28;19975;-82
2023/06/02 10:17:47;;;;;;;;;;;;;;;;;;5074138;28;19924;-83
2023/06/02 10:20:14;;;;;;;;;;;;;;;;;;5079792;28;19975;-81
2023/06/02 10:22:45;;;;;;;;;;;;;;;;;;5075125;28;19924;-82
2023/06/02 10:25:12;;;;;;;;;;;;;;;;;;5076056;28;20436;-82
2023/06/02 10:27:38;;;;;;;;;;;;;;;;;;5075255;28;20986;-81
2023/06/02 10:30:05;;;;;;;;;;;;;;;;;;5077598;28;20011;-83
2023/06/02 10:32:33;;;;;;;;;;;;;;;;;;5080463;28;20011;-82
2023/06/02 10:35:00;;;;;;;;;;;;;;;;;;5081645;28;19936;-83
2023/06/02 10:37:28;;;;;;;;;;;;;;;;;;5076535;28;19924;-83
2023/06/02 10:39:55;;;;;;;;;;;;;;;;;;5073614;28;19967;-83
2023/06/02 10:42:22;;;;;;;;;;;;;;;;;;5054777;28;19974;-82
2023/06/02 10:44:49;;;;;;;;;;;;;;;;;;5073567;28;19931;-82
2023/06/02 10:47:16;;;;;;;;;;;;;;;;;;5081574;28;20328;-86
2023/06/02 10:49:43;;;;;;;;;;;;;;;;;;5086213;28;20492;-85
2023/06/02 10:52:10;;;;;;;;;;;;;;;;;;5072943;28;20470;-86
2023/06/02 10:54:37;;;;;;;;;;;;;;;;;;5082885;28;19930;-83
2023/06/02 10:57:04;;;;;;;;;;;;;;;;;;5080834;28;19929;-85
2023/06/02 10:59:31;;;;;;;;;;;;;;;;;;5077724;28;20380;-86
2023/06/02 11:01:58;;;;;;;;;;;;;;;;;;5063053;28;19942;-82
2023/06/02 11:04:25;;;;;;;;;;;;;;;;;;5076411;28;19924;-81
2023/06/02 11:06:52;;;;;;;;;;;;;;;;;;5075517;28;20440;-83
2023/06/02 11:09:20;;;;;;;;;;;;;;;;;;5075819;28;19989;-75
2023/06/02 11:11:47;;;;;;;;;;;;;;;;;;5068740;28;19924;-71
2023/06/02 11:14:13;;;;;;;;;;;;;;;;;;5082596;28;19967;-70
2023/06/02 11:16:40;;;;;;;;;;;;;;;;;;5070728;28;20019;-78
2023/06/02 11:19:07;;;;;;;;;;;;;;;;;;5072159;28;19924;-79
2023/06/02 11:21:34;;;;;;;;;;;;;;;;;;5070430;28;19996;-82
2023/06/02 11:24:02;;;;;;;;;;;;;;;;;;5074173;28;19935;-85
2023/06/02 11:26:29;;;;;;;;;;;;;;;;;;5073195;28;19924;-86
2023/06/02 11:28:56;;;;;;;;;;;;;;;;;;5074062;28;19924;-87
2023/06/02 11:31:23;;;;;;;;;;;;;;;;;;5076071;28;19974;-85
2023/06/02 11:33:50;;;;;;;;;;;;;;;;;;5074949;28;20007;-85
2023/06/02 11:36:17;;;;;;;;;;;;;;;;;;5071855;28;20341;-83
2023/06/02 11:38:44;;;;;;;;;;;;;;;;;;5075958;28;20418;-85
2023/06/02 11:41:11;;;;;;;;;;;;;;;;;;5074112;28;20389;-85
2023/06/02 11:43:38;;;;;;;;;;;;;;;;;;5068554;28;19990;-83
2023/06/02 11:46:05;;;;;;;;;;;;;;;;;;5071175;28;20002;-86
2023/06/02 11:48:32;;;;;;;;;;;;;;;;;;5071809;28;19999;-85
2023/06/02 11:50:59;;;;;;;;;;;;;;;;;;5074796;28;19956;-84
2023/06/02 11:53:26;;;;;;;;;;;;;;;;;;5067088;28;19959;-85
2023/06/02 11:55:53;;;;;;;;;;;;;;;;;;5072248;28;20375;-86
2023/06/02 11:58:20;;;;;;;;;;;;;;;;;;5077557;28;20478;-81
2023/06/02 12:00:47;;;;;;;;;;;;;;;;;;5075508;28;19931;-82
2023/06/02 12:03:14;;;;;;;;;;;;;;;;;;5073263;28;19928;-85
2023/06/02 12:05:44;;;;;;;;;;;;;;;;;;5068142;28;19924;-84
2023/06/02 12:08:11;;;;;;;;;;;;;;;;;;5094204;28;19931;-84
2023/06/02 12:10:38;;;;;;;;;;;;;;;;;;5074934;28;20021;-86
2023/06/02 12:13:05;;;;;;;;;;;;;;;;;;5078964;28;20016;-86
2023/06/02 12:15:33;;;;;;;;;;;;;;;;;;5081808;28;20019;-84
2023/06/02 12:18:00;;;;;;;;;;;;;;;;;;5075146;28;20315;-84
2023/06/02 12:20:27;;;;;;;;;;;;;;;;;;5073482;28;19979;-85
2023/06/02 12:22:54;;;;;;;;;;;;;;;;;;5087840;28;19936;-85
2023/06/02 12:25:21;;;;;;;;;;;;;;;;;;5074829;28;19932;-86
2023/06/02 12:27:48;;;;;;;;;;;;;;;;;;5077036;28;20438;-86
2023/06/02 12:30:16;;;;;;;;;;;;;;;;;;5078750;28;19925;-85
2023/06/02 12:32:43;;;;;;;;;;;;;;;;;;5087181;28;19925;-87
2023/06/02 12:35:10;;;;;;;;;;;;;;;;;;5076071;28;19933;-86
2023/06/02 12:37:38;;;;;;;;;;;;;;;;;;5084037;28;19924;-86
2023/06/02 12:40:05;;;;;;;;;;;;;;;;;;5090205;28;19928;-85
2023/06/02 12:42:32;;;;;;;;;;;;;;;;;;5082884;28;19925;-85
2023/06/02 12:44:59;;;;;;;;;;;;;;;;;;5073350;28;20011;-86
2023/06/02 12:47:28;;;;;;;;;;;;;;;;;;5089996;28;20049;-83
2023/06/02 12:49:55;;;;;;;;;;;;;;;;;;5070581;28;19925;-83
2023/06/02 12:52:22;;;;;;;;;;;;;;;;;;5073595;28;20012;-82
2023/06/02 12:54:49;;;;;;;;;;;;;;;;;;5073095;28;20011;-82
2023/06/02 12:57:18;;;;;;;;;;;;;;;;;;5082569;28;19984;-81
2023/06/02 12:59:45;;;;;;;;;;;;;;;;;;5077130;28;20379;-77
2023/06/02 13:02:12;;;;;;;;;;;;;;;;;;5079907;28;19925;-80
2023/06/02 13:04:39;;;;;;;;;;;;;;;;;;5073865;28;19947;-80
2023/06/02 13:07:06;;;;;;;;;;;;;;;;;;5077763;28;19976;-80
2023/06/02 13:09:33;;;;;;;;;;;;;;;;;;5076811;28;19925;-79
2023/06/02 13:12:00;;;;;;;;;;;;;;;;;;5077085;28;19924;-78
2023/06/02 13:14:27;;;;;;;;;;;;;;;;;;5072856;28;19924;-82
2023/06/02 13:16:54;;;;;;;;;;;;;;;;;;5071687;28;19964;-79
2023/06/02 13:19:22;;;;;;;;;;;;;;;;;;5069204;28;20446;-79
2023/06/02 13:21:50;;;;;;;;;;;;;;;;;;5074869;28;19928;-80
2023/06/02 13:24:18;;;;;;;;;;;;;;;;;;5074408;28;19928;-80
2023/06/02 13:26:45;;;;;;;;;;;;;;;;;;5075785;28;19939;-83
2023/06/02 13:29:12;;;;;;;;;;;;;;;;;;5074947;28;20025;-84
2023/06/02 13:31:39;;;;;;;;;;;;;;;;;;5074860;28;19925;-81
2023/06/02 13:34:09;;;;;;;;;;;;;;;;;;5078842;28;19932;-82
2023/06/02 13:36:36;;;;;;;;;;;;;;;;;;5073267;28;19924;-80
2023/06/02 13:39:03;;;;;;;;;;;;;;;;;;5068978;28;19928;-82
2023/06/02 13:41:30;;;;;;;;;;;;;;;;;;5069618;28;20015;-82
2023/06/02 13:43:57;;;;;;;;;;;;;;;;;;5071762;28;20038;-82
2023/06/02 13:46:24;;;;;;;;;;;;;;;;;;5068117;28;19971;-80
2023/06/02 13:48:51;;;;;;;;;;;;;;;;;;5075300;28;19959;-80
2023/06/02 13:51:18;;;;;;;;;;;;;;;;;;5076073;28;19979;-80
2023/06/02 13:53:45;;;;;;;;;;;;;;;;;;5078511;28;20346;-80
2023/06/02 13:56:12;;;;;;;;;;;;;;;;;;5071706;28;20014;-78
2023/06/02 13:58:39;;;;;;;;;;;;;;;;;;5068415;28;19924;-82
2023/06/02 14:01:06;;;;;;;;;;;;;;;;;;5074790;28;19924;-80
2023/06/02 14:03:34;;;;;;;;;;;;;;;;;;5075288;28;20039;-80
2023/06/02 14:06:01;;;;;;;;;;;;;;;;;;5066586;28;19928;-81
2023/06/02 14:08:28;;;;;;;;;;;;;;;;;;5071392;28;20019;-80
2023/06/02 14:10:55;;;;;;;;;;;;;;;;;;5069191;28;19997;-75
2023/06/02 14:13:22;;;;;;;;;;;;;;;;;;5068411;28;19925;-78
2023/06/02 14:15:50;;;;;;;;;;;;;;;;;;5070285;28;20021;-78
2023/06/02 14:18:16;;;;;;;;;;;;;;;;;;5069760;28;19974;-76
2023/06/02 14:20:43;;;;;;;;;;;;;;;;;;5061393;28;20063;-77
2023/06/02 14:23:10;;;;;;;;;;;;;;;;;;5072495;28;19925;-78
2023/06/02 14:25:37;;;;;;;;;;;;;;;;;;5068860;28;19971;-79
2023/06/02 14:28:04;;;;;;;;;;;;;;;;;;5070932;28;19955;-79
2023/06/02 14:30:31;;;;;;;;;;;;;;;;;;5068572;28;19986;-78
2023/06/02 14:32:58;;;;;;;;;;;;;;;;;;5066466;28;19924;-79
2023/06/02 14:35:28;;;;;;;;;;;;;;;;;;5066418;28;19932;-79
2023/06/02 14:37:55;;;;;;;;;;;;;;;;;;5070170;28;19963;-78
2023/06/02 14:40:22;;;;;;;;;;;;;;;;;;5067148;28;20007;-78
2023/06/02 14:42:49;;;;;;;;;;;;;;;;;;5066625;28;19972;-78
2023/06/02 14:45:16;;;;;;;;;;;;;;;;;;5066543;28;19954;-78
2023/06/02 14:47:43;;;;;;;;;;;;;;;;;;5068524;28;20023;-78
2023/06/02 14:50:10;;;;;;;;;;;;;;;;;;5069753;28;19925;-79
2023/06/02 14:52:37;;;;;;;;;;;;;;;;;;5069661;28;20291;-78
2023/06/02 14:55:04;;;;;;;;;;;;;;;;;;5068560;28;19945;-81
2023/06/02 14:57:31;;;;;;;;;;;;;;;;;;5067391;28;19928;-81
2023/06/02 14:59:58;;;;;;;;;;;;;;;;;;5072421;28;20015;-80
2023/06/02 15:02:25;;;;;;;;;;;;;;;;;;5069689;28;19932;-81
2023/06/02 15:04:52;;;;;;;;;;;;;;;;;;5080939;28;19969;-80
2023/06/02 15:07:21;;;;;;;;;;;;;;;;;;5067783;28;20015;-81
2023/06/02 15:09:48;;;;;;;;;;;;;;;;;;5071855;28;19931;-82
2023/06/02 15:12:15;;;;;;;;;;;;;;;;;;5071970;28;19931;-82
2023/06/02 15:14:42;;;;;;;;;;;;;;;;;;5087767;28;19924;-81
2023/06/02 15:17:09;;;;;;;;;;;;;;;;;;5081828;28;19985;-83
2023/06/02 15:19:36;;;;;;;;;;;;;;;;;;5075204;28;19929;-83
2023/06/02 15:22:03;;;;;;;;;;;;;;;;;;5070306;28;19924;-82
2023/06/02 15:24:30;;;;;;;;;;;;;;;;;;5075680;28;19963;-80
2023/06/02 15:26:57;;;;;;;;;;;;;;;;;;5082281;28;19985;-82
2023/06/02 15:29:24;;;;;;;;;;;;;;;;;;5073049;28;20375;-83
2023/06/02 15:31:52;;;;;;;;;;;;;;;;;;5077383;28;19928;-82
2023/06/02 15:34:19;;;;;;;;;;;;;;;;;;5072210;28;20059;-83
2023/06/02 15:36:46;;;;;;;;;;;;;;;;;;5074952;28;19986;-82
2023/06/02 15:39:13;;;;;;;;;;;;;;;;;;5073850;28;20023;-81
2023/06/02 15:41:41;;;;;;;;;;;;;;;;;;5071967;28;19939;-83
2023/06/02 15:44:09;;;;;;;;;;;;;;;;;;5068157;28;19925;-82
2023/06/02 15:46:36;;;;;;;;;;;;;;;;;;5067902;28;20353;-82
2023/06/02 15:49:03;;;;;;;;;;;;;;;;;;5070483;28;19941;-83
2023/06/02 15:51:30;;;;;;;;;;;;;;;;;;5072839;28;20319;-79
2023/06/02 15:53:57;;;;;;;;;;;;;;;;;;5072997;28;19924;-80
2023/06/02 15:56:26;;;;;;;;;;;;;;;;;;5076542;28;19924;-80
2023/06/02 15:58:53;;;;;;;;;;;;;;;;;;5080024;28;20381;-80
2023/06/02 16:01:20;;;;;;;;;;;;;;;;;;5074558;28;19928;-80
2023/06/02 16:03:47;;;;;;;;;;;;;;;;;;5074147;28;19928;-79
2023/06/02 16:06:14;;;;;;;;;;;;;;;;;;5074750;28;20008;-81
2023/06/02 16:08:41;;;;;;;;;;;;;;;;;;5061045;28;19924;-81
2023/06/02 16:11:08;;;;;;;;;;;;;;;;;;5072090;28;19955;-80
2023/06/02 16:13:35;;;;;;;;;;;;;;;;;;5071966;28;19985;-79
2023/06/02 16:16:02;;;;;;;;;;;;;;;;;;5068143;28;20019;-80
2023/06/02 16:18:29;;;;;;;;;;;;;;;;;;5063796;28;19928;-81
2023/06/02 16:20:56;;;;;;;;;;;;;;;;;;5076625;28;20005;-80
2023/06/02 16:23:23;;;;;;;;;;;;;;;;;;5067684;28;19924;-80
2023/06/02 16:25:50;;;;;;;;;;;;;;;;;;5072059;28;20027;-80
2023/06/02 16:28:17;;;;;;;;;;;;;;;;;;5069261;28;19986;-78
2023/06/02 16:30:44;;;;;;;;;;;;;;;;;;5063525;28;19970;-81
2023/06/02 16:33:11;;;;;;;;;;;;;;;;;;5068446;28;19932;-81
2023/06/02 16:35:38;;;;;;;;;;;;;;;;;;5069482;28;19929;-81
2023/06/02 16:38:05;;;;;;;;;;;;;;;;;;5071245;28;20027;-80
2023/06/02 16:40:33;;;;;;;;;;;;;;;;;;5070775;28;19985;-76
2023/06/02 16:43:00;;;;;;;;;;;;;;;;;;5067374;28;19931;-79
2023/06/02 16:45:27;;;;;;;;;;;;;;;;;;5073288;28;19966;-79
2023/06/02 16:47:53;;;;;;;;;;;;;;;;;;5069082;28;19933;-78